WetterOnline ( https://www.wetteronline.de )

Wetter aktuell Niesgrau

Aktuelles Wetter: Schönhagen (Ostseebad) (2m)

6-stündlich | Neueste Meldungen
Ortszeit Temperatur Wetter
Sa, 23.01. 7:00 0.8° C bedeckt
Sa, 23.01. 1:00 3.4° C wolkig
Fr, 22.01. 19:00 4.8° C leichter Regen
Fr, 22.01. 13:00 5.5° C bewölkt
Fr, 22.01. 7:00 3.0° C Sprühregen
Fr, 22.01. 1:00 5.7° C bedeckt
Do, 21.01. 19:00 7.4° C bedeckt
Do, 21.01. 13:00 7.9° C wolkig
Ortszeit Temperatur Wetter
Sa, 23.01. 7:30 0.8° C bedeckt
Sa, 23.01. 7:20 0.8° C bedeckt
Sa, 23.01. 7:10 0.9° C bedeckt
Sa, 23.01. 7:00 0.8° C bedeckt
Sa, 23.01. 6:50 0.8° C bedeckt
Sa, 23.01. 6:40 0.9° C bedeckt
Sa, 23.01. 6:30 1.0° C bedeckt
Sa, 23.01. 6:00 1.1° C bedeckt
Ortszeit Relative Feuchte Sichtweite
Sa, 23.01. 7:00 96% 7 km
Sa, 23.01. 1:00 89% 26 km
Fr, 22.01. 19:00 81% 15 km
Fr, 22.01. 13:00 79% 35 km
Fr, 22.01. 7:00 97% 14 km
Fr, 22.01. 1:00 77% 60 km
Do, 21.01. 19:00 67% 65 km
Do, 21.01. 13:00 66% 50 km
Ortszeit Relative Feuchte Sichtweite
Sa, 23.01. 7:30 97% 6 km
Sa, 23.01. 7:20 97% -
Sa, 23.01. 7:10 96% -
Sa, 23.01. 7:00 96% 7 km
Sa, 23.01. 6:50 96% -
Sa, 23.01. 6:40 96% -
Sa, 23.01. 6:30 96% 8 km
Sa, 23.01. 6:00 96% 11 km
Ortszeit Niederschlagsmenge Niederschlagsart
Sa, 23.01. 7:00 0.2 l/m2 in 12 Std. -
Sa, 23.01. 1:00 0.2 l/m2 in 6 Std. Regen
Fr, 22.01. 19:00 0.1 l/m2 in 12 Std. Regen
Fr, 22.01. 13:00 0.1 l/m2 in 6 Std. Regen
Fr, 22.01. 7:00 9 l/m2 in 12 Std. Regen
Fr, 22.01. 1:00 0.0 l/m2 in 6 Std. -
Do, 21.01. 19:00 0.1 l/m2 in 12 Std. -
Do, 21.01. 13:00 0.1 l/m2 in 6 Std. Regen
Ortszeit Niederschlagsmenge Niederschlagsart
Sa, 23.01. 7:30 0.0 l/m2 in 1 Std. -
Sa, 23.01. 7:20 keine Meldung -
Sa, 23.01. 7:10 keine Meldung -
Sa, 23.01. 7:00 0.0 l/m2 in 1 Std. -
Sa, 23.01. 6:50 keine Meldung -
Sa, 23.01. 6:40 keine Meldung -
Sa, 23.01. 6:30 0.0 l/m2 in 1 Std. -
Sa, 23.01. 6:00 0.0 l/m2 in 1 Std. -
Ortszeit Stärke Spitze Richtung
km/h Bft. km/h Grad Sektor
Sa, 23.01. 7:00 11 2 32 210° SW
Sa, 23.01. 1:00 22 4 58 230° SW
Fr, 22.01. 19:00 35 5 69 230° SW
Fr, 22.01. 13:00 37 5 63 220° SW
Fr, 22.01. 7:00 24 4 43 250° W
Fr, 22.01. 1:00 20 4 59 170° S
Do, 21.01. 19:00 33 5 69 200° S
Do, 21.01. 13:00 39 6 100 210° SW
Ortszeit Stärke Spitze Richtung
km/h Bft. km/h Grad Sektor
Sa, 23.01. 7:30 11 2 18 210° SW
Sa, 23.01. 7:20 11 2 - 210° SW
Sa, 23.01. 7:10 14 3 - 210° SW
Sa, 23.01. 7:00 11 2 18 210° SW
Sa, 23.01. 6:50 11 2 - 210° SW
Sa, 23.01. 6:40 11 2 - 210° SW
Sa, 23.01. 6:30 13 3 15 210° SW
Sa, 23.01. 6:00 13 3 19 210° SW
Ortszeit Untergrenze Bedeckung Gattung
total tief tief mittel hoch
Sa, 23.01. 7:00 4800 m 8/8 8/8 - - -
Sa, 23.01. 1:00 420 m 5/8 5/8 - - -
Fr, 22.01. 19:00 570 m 7/8 7/8 - - -
Fr, 22.01. 13:00 570 m 7/8 7/8 - - -
Fr, 22.01. 7:00 30 m 8/8 8/8 - - -
Fr, 22.01. 1:00 2100 m 8/8 8/8 - - -
Do, 21.01. 19:00 1800 m 8/8 8/8 - - -
Do, 21.01. 13:00 1080 m 5/8 5/8 - - -
Ortszeit Bedeckungsgrad in Achtel und Wolkenuntergrenze
Sa, 23.01. 7:30 8(4800m)
Sa, 23.01. 7:20 8(4800m)
Sa, 23.01. 7:10 8(4800m)
Sa, 23.01. 7:00 8(4800m)
Sa, 23.01. 6:50 8(4800m)
Sa, 23.01. 6:40 8(4800m)
Sa, 23.01. 6:30 8(5100m)
Sa, 23.01. 6:00 8(5400m)
Ortszeit Luftdruck NN (hPa) Tendenz (hPa in 3 Std.)
Sa, 23.01. 7:00 995 + 0,1
Sa, 23.01. 1:00 995 + 2,6
Fr, 22.01. 19:00 990 + 2,1
Fr, 22.01. 13:00 986 + 1,9
Fr, 22.01. 7:00 981 + 1,5
Fr, 22.01. 1:00 984 - 2,4
Do, 21.01. 19:00 987 + 0,2
Do, 21.01. 13:00 987 + 2,2
Ortszeit Luftdruck NN (hPa) Tendenz (hPa in 3 Std.)
Sa, 23.01. 7:30 996 + 0,2
Sa, 23.01. 7:20 996 keine Meldung
Sa, 23.01. 7:10 996 keine Meldung
Sa, 23.01. 7:00 995 + 0,1
Sa, 23.01. 6:50 995 keine Meldung
Sa, 23.01. 6:40 995 keine Meldung
Sa, 23.01. 6:30 995 + 0,3
Sa, 23.01. 6:00 995 + 0,3
Ortszeit Schneehöhe (cm)
Sa, 23.01. 7:00 0
Sa, 23.01. 1:00 0
Fr, 22.01. 19:00 0
Fr, 22.01. 13:00 0
Fr, 22.01. 7:00 0
Fr, 22.01. 1:00 0
Do, 21.01. 19:00 0
Do, 21.01. 13:00 0
Ortszeit Schneehöhe (cm)
Sa, 23.01. 7:30 0
Sa, 23.01. 7:20 0
Sa, 23.01. 7:10 0
Sa, 23.01. 7:00 0
Sa, 23.01. 6:50 0
Sa, 23.01. 6:40 0
Sa, 23.01. 6:30 0
Sa, 23.01. 6:00 0
Link zu dieser Seite / Seite empfehlen

Das Wetter in ...